sensor_id;sensor_type;location;lat;lon;timestamp;temperature;humidity
8896;DHT22;4484;48.928;10.066;2024-01-16T00:00:57;-2.60;99.90
8896;DHT22;4484;48.928;10.066;2024-01-16T00:03:24;-2.60;99.90
8896;DHT22;4484;48.928;10.066;2024-01-16T00:05:51;-2.60;99.90
8896;DHT22;4484;48.928;10.066;2024-01-16T00:08:18;-2.70;99.90
8896;DHT22;4484;48.928;10.066;2024-01-16T00:10:45;-2.70;99.90
8896;DHT22;4484;48.928;10.066;2024-01-16T00:13:12;-2.80;99.90
8896;DHT22;4484;48.928;10.066;2024-01-16T00:15:39;-2.90;99.90
8896;DHT22;4484;48.928;10.066;2024-01-16T00:18:08;-3.00;99.90
8896;DHT22;4484;48.928;10.066;2024-01-16T00:20:35;-3.00;99.90
8896;DHT22;4484;48.928;10.066;2024-01-16T00:23:03;-3.10;99.90
8896;DHT22;4484;48.928;10.066;2024-01-16T00:25:30;-3.10;99.90
8896;DHT22;4484;48.928;10.066;2024-01-16T00:27:57;-3.20;99.90
8896;DHT22;4484;48.928;10.066;2024-01-16T00:30:23;-3.20;99.90
8896;DHT22;4484;48.928;10.066;2024-01-16T00:32:50;-3.20;99.90
8896;DHT22;4484;48.928;10.066;2024-01-16T00:35:17;-3.30;99.90
8896;DHT22;4484;48.928;10.066;2024-01-16T00:37:44;-3.30;99.90
8896;DHT22;4484;48.928;10.066;2024-01-16T00:40:11;-3.30;99.90
8896;DHT22;4484;48.928;10.066;2024-01-16T00:42:38;-3.30;99.90
8896;DHT22;4484;48.928;10.066;2024-01-16T00:45:05;-3.30;99.90
8896;DHT22;4484;48.928;10.066;2024-01-16T00:47:32;-3.30;99.90
8896;DHT22;4484;48.928;10.066;2024-01-16T00:49:59;-3.40;99.90
8896;DHT22;4484;48.928;10.066;2024-01-16T00:52:29;-3.40;99.90
8896;DHT22;4484;48.928;10.066;2024-01-16T00:54:56;-3.40;99.90
8896;DHT22;4484;48.928;10.066;2024-01-16T00:57:23;-3.40;99.90
8896;DHT22;4484;48.928;10.066;2024-01-16T00:59:50;-3.40;99.90
8896;DHT22;4484;48.928;10.066;2024-01-16T01:02:17;-3.40;99.90
8896;DHT22;4484;48.928;10.066;2024-01-16T01:04:44;-3.40;99.90
8896;DHT22;4484;48.928;10.066;2024-01-16T01:07:14;-3.30;99.90
8896;DHT22;4484;48.928;10.066;2024-01-16T01:09:41;-3.30;99.90
8896;DHT22;4484;48.928;10.066;2024-01-16T01:12:08;-3.30;99.90
8896;DHT22;4484;48.928;10.066;2024-01-16T01:14:36;-3.30;99.90
8896;DHT22;4484;48.928;10.066;2024-01-16T01:17:03;-3.30;99.90
8896;DHT22;4484;48.928;10.066;2024-01-16T01:19:30;-3.30;99.90
8896;DHT22;4484;48.928;10.066;2024-01-16T01:21:57;-3.20;99.90
8896;DHT22;4484;48.928;10.066;2024-01-16T01:24:24;-3.10;99.90
8896;DHT22;4484;48.928;10.066;2024-01-16T01:26:51;-3.10;99.90
8896;DHT22;4484;48.928;10.066;2024-01-16T01:29:18;-3.10;99.90
8896;DHT22;4484;48.928;10.066;2024-01-16T01:31:46;-3.10;99.90
8896;DHT22;4484;48.928;10.066;2024-01-16T01:34:14;-3.10;99.90
8896;DHT22;4484;48.928;10.066;2024-01-16T01:36:42;-3.10;99.90
8896;DHT22;4484;48.928;10.066;2024-01-16T01:39:10;-3.10;99.90
8896;DHT22;4484;48.928;10.066;2024-01-16T01:41:38;-3.10;99.90
8896;DHT22;4484;48.928;10.066;2024-01-16T01:44:06;-3.20;99.90
8896;DHT22;4484;48.928;10.066;2024-01-16T01:46:34;-3.20;99.90
8896;DHT22;4484;48.928;10.066;2024-01-16T01:49:02;-3.20;99.90
8896;DHT22;4484;48.928;10.066;2024-01-16T01:51:30;-3.20;99.90
8896;DHT22;4484;48.928;10.066;2024-01-16T01:53:57;-3.20;99.90
8896;DHT22;4484;48.928;10.066;2024-01-16T01:56:26;-3.30;99.90
8896;DHT22;4484;48.928;10.066;2024-01-16T01:58:56;-3.20;99.90
8896;DHT22;4484;48.928;10.066;2024-01-16T02:01:24;-3.20;99.90
8896;DHT22;4484;48.928;10.066;2024-01-16T02:03:52;-3.30;99.90
8896;DHT22;4484;48.928;10.066;2024-01-16T02:06:21;-3.30;99.90
8896;DHT22;4484;48.928;10.066;2024-01-16T02:08:49;-3.30;99.90
8896;DHT22;4484;48.928;10.066;2024-01-16T02:11:16;-3.30;99.90
8896;DHT22;4484;48.928;10.066;2024-01-16T02:13:43;-3.30;99.90
8896;DHT22;4484;48.928;10.066;2024-01-16T02:16:21;-3.30;99.90
8896;DHT22;4484;48.928;10.066;2024-01-16T02:18:48;-3.30;99.90
8896;DHT22;4484;48.928;10.066;2024-01-16T02:21:22;-3.30;99.90
8896;DHT22;4484;48.928;10.066;2024-01-16T02:23:51;-3.40;99.90
8896;DHT22;4484;48.928;10.066;2024-01-16T02:26:18;-3.40;99.90
8896;DHT22;4484;48.928;10.066;2024-01-16T02:28:46;-3.40;99.90
8896;DHT22;4484;48.928;10.066;2024-01-16T02:31:13;-3.50;99.90
8896;DHT22;4484;48.928;10.066;2024-01-16T02:33:40;-3.50;99.90
8896;DHT22;4484;48.928;10.066;2024-01-16T02:36:07;-3.50;99.90
8896;DHT22;4484;48.928;10.066;2024-01-16T02:38:34;-3.50;99.90
8896;DHT22;4484;48.928;10.066;2024-01-16T02:41:01;-3.60;99.90
8896;DHT22;4484;48.928;10.066;2024-01-16T02:43:28;-3.60;99.90
8896;DHT22;4484;48.928;10.066;2024-01-16T02:45:54;-3.70;99.90
8896;DHT22;4484;48.928;10.066;2024-01-16T02:48:21;-3.70;99.90
8896;DHT22;4484;48.928;10.066;2024-01-16T02:50:48;-3.70;99.90
8896;DHT22;4484;48.928;10.066;2024-01-16T02:53:15;-3.80;99.90
8896;DHT22;4484;48.928;10.066;2024-01-16T02:55:42;-3.80;99.90
8896;DHT22;4484;48.928;10.066;2024-01-16T02:58:09;-3.80;99.90
8896;DHT22;4484;48.928;10.066;2024-01-16T03:00:36;-3.90;99.90
8896;DHT22;4484;48.928;10.066;2024-01-16T03:03:04;-3.80;99.90
8896;DHT22;4484;48.928;10.066;2024-01-16T03:05:31;-3.90;99.90
8896;DHT22;4484;48.928;10.066;2024-01-16T03:07:58;-3.90;99.90
8896;DHT22;4484;48.928;10.066;2024-01-16T03:10:25;-3.90;99.90
8896;DHT22;4484;48.928;10.066;2024-01-16T03:12:52;-3.90;99.90
8896;DHT22;4484;48.928;10.066;2024-01-16T03:15:19;-4.00;99.90
8896;DHT22;4484;48.928;10.066;2024-01-16T03:17:47;-4.00;99.90
8896;DHT22;4484;48.928;10.066;2024-01-16T03:20:15;-3.90;99.90
8896;DHT22;4484;48.928;10.066;2024-01-16T03:22:43;-3.90;99.90
8896;DHT22;4484;48.928;10.066;2024-01-16T03:25:10;-3.90;99.90
8896;DHT22;4484;48.928;10.066;2024-01-16T03:27:38;-4.00;99.90
8896;DHT22;4484;48.928;10.066;2024-01-16T03:30:06;-4.10;99.90
8896;DHT22;4484;48.928;10.066;2024-01-16T03:32:36;-4.20;99.90
8896;DHT22;4484;48.928;10.066;2024-01-16T03:35:03;-4.20;99.90
8896;DHT22;4484;48.928;10.066;2024-01-16T03:37:30;-4.20;99.90
8896;DHT22;4484;48.928;10.066;2024-01-16T03:39:57;-4.30;99.90
8896;DHT22;4484;48.928;10.066;2024-01-16T03:42:24;-4.30;99.90
8896;DHT22;4484;48.928;10.066;2024-01-16T03:44:51;-4.40;99.90
8896;DHT22;4484;48.928;10.066;2024-01-16T03:47:19;-4.40;99.90
8896;DHT22;4484;48.928;10.066;2024-01-16T03:49:46;-4.50;99.90
8896;DHT22;4484;48.928;10.066;2024-01-16T03:52:13;-4.50;99.90
8896;DHT22;4484;48.928;10.066;2024-01-16T03:54:40;-4.50;99.90
8896;DHT22;4484;48.928;10.066;2024-01-16T03:57:06;-4.50;99.90
8896;DHT22;4484;48.928;10.066;2024-01-16T03:59:37;-4.50;99.90
8896;DHT22;4484;48.928;10.066;2024-01-16T04:02:04;-4.50;99.90
8896;DHT22;4484;48.928;10.066;2024-01-16T04:04:31;-4.50;99.90
8896;DHT22;4484;48.928;10.066;2024-01-16T04:06:58;-4.50;99.90
8896;DHT22;4484;48.928;10.066;2024-01-16T04:09:25;-4.50;99.90
8896;DHT22;4484;48.928;10.066;2024-01-16T04:11:51;-4.50;99.90
8896;DHT22;4484;48.928;10.066;2024-01-16T04:14:18;-4.50;99.90
8896;DHT22;4484;48.928;10.066;2024-01-16T04:16:45;-4.40;99.90
8896;DHT22;4484;48.928;10.066;2024-01-16T04:19:12;-4.50;99.90
8896;DHT22;4484;48.928;10.066;2024-01-16T04:21:39;-4.50;99.90
8896;DHT22;4484;48.928;10.066;2024-01-16T04:24:06;-4.50;99.90
8896;DHT22;4484;48.928;10.066;2024-01-16T04:26:36;-4.60;99.90
8896;DHT22;4484;48.928;10.066;2024-01-16T04:29:04;-4.50;99.90
8896;DHT22;4484;48.928;10.066;2024-01-16T04:31:39;-4.50;99.90
8896;DHT22;4484;48.928;10.066;2024-01-16T04:34:07;-4.50;99.90
8896;DHT22;4484;48.928;10.066;2024-01-16T04:36:34;-4.50;99.90
8896;DHT22;4484;48.928;10.066;2024-01-16T04:39:00;-4.50;99.90
8896;DHT22;4484;48.928;10.066;2024-01-16T04:41:27;-4.50;99.90
8896;DHT22;4484;48.928;10.066;2024-01-16T04:43:54;-4.50;99.90
8896;DHT22;4484;48.928;10.066;2024-01-16T04:46:21;-4.60;99.90
8896;DHT22;4484;48.928;10.066;2024-01-16T04:48:48;-4.60;99.90
8896;DHT22;4484;48.928;10.066;2024-01-16T04:51:16;-4.70;99.90
8896;DHT22;4484;48.928;10.066;2024-01-16T04:53:43;-4.70;99.90
8896;DHT22;4484;48.928;10.066;2024-01-16T04:56:09;-4.70;99.90
8896;DHT22;4484;48.928;10.066;2024-01-16T04:58:36;-4.80;99.90
8896;DHT22;4484;48.928;10.066;2024-01-16T05:01:03;-4.80;99.90
8896;DHT22;4484;48.928;10.066;2024-01-16T05:03:30;-4.90;99.90
8896;DHT22;4484;48.928;10.066;2024-01-16T05:05:57;-4.90;99.90
8896;DHT22;4484;48.928;10.066;2024-01-16T05:08:24;-5.10;99.90
8896;DHT22;4484;48.928;10.066;2024-01-16T05:10:51;-5.10;99.90
8896;DHT22;4484;48.928;10.066;2024-01-16T05:13:18;-5.20;99.90
8896;DHT22;4484;48.928;10.066;2024-01-16T05:15:45;-5.20;99.90
8896;DHT22;4484;48.928;10.066;2024-01-16T05:18:12;-5.30;99.90
8896;DHT22;4484;48.928;10.066;2024-01-16T05:20:39;-5.30;99.90
8896;DHT22;4484;48.928;10.066;2024-01-16T05:23:06;-5.30;99.90
8896;DHT22;4484;48.928;10.066;2024-01-16T05:25:33;-5.30;99.90
8896;DHT22;4484;48.928;10.066;2024-01-16T05:28:00;-5.40;99.90
8896;DHT22;4484;48.928;10.066;2024-01-16T05:30:27;-5.40;99.90
8896;DHT22;4484;48.928;10.066;2024-01-16T05:32:54;-5.50;99.90
8896;DHT22;4484;48.928;10.066;2024-01-16T05:35:21;-5.50;99.90
8896;DHT22;4484;48.928;10.066;2024-01-16T05:37:51;-5.60;99.90
8896;DHT22;4484;48.928;10.066;2024-01-16T05:40:18;-5.50;99.90
8896;DHT22;4484;48.928;10.066;2024-01-16T05:42:45;-5.50;99.90
8896;DHT22;4484;48.928;10.066;2024-01-16T05:45:12;-5.50;99.90
8896;DHT22;4484;48.928;10.066;2024-01-16T05:47:40;-5.40;99.90
8896;DHT22;4484;48.928;10.066;2024-01-16T05:50:07;-5.40;99.90
8896;DHT22;4484;48.928;10.066;2024-01-16T05:52:36;-5.40;99.90
8896;DHT22;4484;48.928;10.066;2024-01-16T05:55:04;-5.40;99.90
8896;DHT22;4484;48.928;10.066;2024-01-16T05:57:31;-5.40;99.90
8896;DHT22;4484;48.928;10.066;2024-01-16T06:00:00;-5.40;99.90
8896;DHT22;4484;48.928;10.066;2024-01-16T06:02:31;-5.40;99.90
8896;DHT22;4484;48.928;10.066;2024-01-16T06:04:58;-5.50;99.90
8896;DHT22;4484;48.928;10.066;2024-01-16T06:07:24;-5.50;99.90
8896;DHT22;4484;48.928;10.066;2024-01-16T06:09:51;-5.60;99.90
8896;DHT22;4484;48.928;10.066;2024-01-16T06:12:18;-5.60;99.90
8896;DHT22;4484;48.928;10.066;2024-01-16T06:14:45;-5.60;99.90
8896;DHT22;4484;48.928;10.066;2024-01-16T06:17:12;-5.60;99.90
8896;DHT22;4484;48.928;10.066;2024-01-16T06:19:39;-5.60;99.90
8896;DHT22;4484;48.928;10.066;2024-01-16T06:22:06;-5.60;99.90
8896;DHT22;4484;48.928;10.066;2024-01-16T06:24:32;-5.60;99.90
8896;DHT22;4484;48.928;10.066;2024-01-16T06:27:06;-5.70;99.90
8896;DHT22;4484;48.928;10.066;2024-01-16T06:29:33;-5.70;99.90
8896;DHT22;4484;48.928;10.066;2024-01-16T06:32:01;-5.70;99.90
8896;DHT22;4484;48.928;10.066;2024-01-16T06:34:28;-5.70;99.90
8896;DHT22;4484;48.928;10.066;2024-01-16T06:36:56;-5.80;99.90
8896;DHT22;4484;48.928;10.066;2024-01-16T06:39:22;-5.80;99.90
8896;DHT22;4484;48.928;10.066;2024-01-16T06:41:49;-5.80;99.90
8896;DHT22;4484;48.928;10.066;2024-01-16T06:44:16;-5.80;99.90
8896;DHT22;4484;48.928;10.066;2024-01-16T06:46:43;-5.80;99.90
8896;DHT22;4484;48.928;10.066;2024-01-16T06:49:10;-5.80;99.90
8896;DHT22;4484;48.928;10.066;2024-01-16T06:51:37;-5.70;99.90
8896;DHT22;4484;48.928;10.066;2024-01-16T06:54:04;-5.70;99.90
8896;DHT22;4484;48.928;10.066;2024-01-16T06:56:31;-5.70;99.90
8896;DHT22;4484;48.928;10.066;2024-01-16T06:58:58;-5.60;99.90
8896;DHT22;4484;48.928;10.066;2024-01-16T07:01:26;-5.50;99.90
8896;DHT22;4484;48.928;10.066;2024-01-16T07:03:53;-5.60;99.90
8896;DHT22;4484;48.928;10.066;2024-01-16T07:06:20;-5.60;99.90
8896;DHT22;4484;48.928;10.066;2024-01-16T07:08:47;-5.50;99.90
8896;DHT22;4484;48.928;10.066;2024-01-16T07:11:14;-5.60;99.90
8896;DHT22;4484;48.928;10.066;2024-01-16T07:13:41;-5.50;99.90
8896;DHT22;4484;48.928;10.066;2024-01-16T07:16:10;-5.50;99.90
8896;DHT22;4484;48.928;10.066;2024-01-16T07:18:40;-5.40;99.90
8896;DHT22;4484;48.928;10.066;2024-01-16T07:21:16;-5.40;99.90
8896;DHT22;4484;48.928;10.066;2024-01-16T07:23:44;-5.30;99.90
8896;DHT22;4484;48.928;10.066;2024-01-16T07:26:11;-5.30;99.90
8896;DHT22;4484;48.928;10.066;2024-01-16T07:28:38;-5.20;99.90
8896;DHT22;4484;48.928;10.066;2024-01-16T07:31:05;-5.20;99.90
8896;DHT22;4484;48.928;10.066;2024-01-16T07:33:32;-5.10;99.90
8896;DHT22;4484;48.928;10.066;2024-01-16T07:35:59;-5.00;99.90
8896;DHT22;4484;48.928;10.066;2024-01-16T07:38:26;-5.00;99.90
8896;DHT22;4484;48.928;10.066;2024-01-16T07:40:53;-4.90;99.90
8896;DHT22;4484;48.928;10.066;2024-01-16T07:43:20;-4.90;99.90
8896;DHT22;4484;48.928;10.066;2024-01-16T07:45:47;-4.80;99.90
8896;DHT22;4484;48.928;10.066;2024-01-16T07:48:14;-4.70;99.90
8896;DHT22;4484;48.928;10.066;2024-01-16T07:50:41;-4.60;99.90
8896;DHT22;4484;48.928;10.066;2024-01-16T07:53:08;-4.60;99.90
8896;DHT22;4484;48.928;10.066;2024-01-16T07:55:35;-4.60;99.90
8896;DHT22;4484;48.928;10.066;2024-01-16T07:58:02;-4.50;99.90
8896;DHT22;4484;48.928;10.066;2024-01-16T08:00:30;-4.40;99.90
8896;DHT22;4484;48.928;10.066;2024-01-16T08:02:57;-4.40;99.90
8896;DHT22;4484;48.928;10.066;2024-01-16T08:05:24;-4.30;99.90
8896;DHT22;4484;48.928;10.066;2024-01-16T08:07:54;-4.20;99.90
8896;DHT22;4484;48.928;10.066;2024-01-16T08:10:21;-4.20;99.90
8896;DHT22;4484;48.928;10.066;2024-01-16T08:12:48;-4.10;99.90
8896;DHT22;4484;48.928;10.066;2024-01-16T08:15:15;-4.00;99.90
8896;DHT22;4484;48.928;10.066;2024-01-16T08:17:42;-4.00;99.90
8896;DHT22;4484;48.928;10.066;2024-01-16T08:20:10;-3.90;99.90
8896;DHT22;4484;48.928;10.066;2024-01-16T08:22:37;-3.80;99.90
8896;DHT22;4484;48.928;10.066;2024-01-16T08:25:04;-3.70;99.90
8896;DHT22;4484;48.928;10.066;2024-01-16T08:27:31;-3.60;99.90
8896;DHT22;4484;48.928;10.066;2024-01-16T08:29:59;-3.60;99.90
8896;DHT22;4484;48.928;10.066;2024-01-16T08:32:26;-3.50;99.90
8896;DHT22;4484;48.928;10.066;2024-01-16T08:34:54;-3.40;99.90
8896;DHT22;4484;48.928;10.066;2024-01-16T08:37:20;-3.30;99.90
8896;DHT22;4484;48.928;10.066;2024-01-16T08:39:47;-3.20;99.90
8896;DHT22;4484;48.928;10.066;2024-01-16T08:42:14;-3.10;99.90
8896;DHT22;4484;48.928;10.066;2024-01-16T08:44:41;-3.00;99.90
8896;DHT22;4484;48.928;10.066;2024-01-16T08:47:08;-2.90;99.90
8896;DHT22;4484;48.928;10.066;2024-01-16T08:49:36;-2.80;99.90
8896;DHT22;4484;48.928;10.066;2024-01-16T08:52:05;-2.80;99.90
8896;DHT22;4484;48.928;10.066;2024-01-16T08:54:32;-2.70;99.90
8896;DHT22;4484;48.928;10.066;2024-01-16T08:56:59;-2.60;99.90
8896;DHT22;4484;48.928;10.066;2024-01-16T08:59:26;-2.50;99.90
8896;DHT22;4484;48.928;10.066;2024-01-16T09:01:52;-2.50;99.90
8896;DHT22;4484;48.928;10.066;2024-01-16T09:04:19;-2.40;99.90
8896;DHT22;4484;48.928;10.066;2024-01-16T09:06:46;-2.30;99.90
8896;DHT22;4484;48.928;10.066;2024-01-16T09:09:13;-2.20;99.90
8896;DHT22;4484;48.928;10.066;2024-01-16T09:11:42;-2.10;99.90
8896;DHT22;4484;48.928;10.066;2024-01-16T09:14:09;-2.00;99.90
8896;DHT22;4484;48.928;10.066;2024-01-16T09:16:36;-1.90;99.90
8896;DHT22;4484;48.928;10.066;2024-01-16T09:19:03;-1.70;99.90
8896;DHT22;4484;48.928;10.066;2024-01-16T09:21:30;-1.60;99.90
8896;DHT22;4484;48.928;10.066;2024-01-16T09:23:57;-1.40;99.90
8896;DHT22;4484;48.928;10.066;2024-01-16T09:26:24;-1.20;99.90
8896;DHT22;4484;48.928;10.066;2024-01-16T09:28:51;-1.00;99.90
8896;DHT22;4484;48.928;10.066;2024-01-16T09:31:17;-0.80;99.90
8896;DHT22;4484;48.928;10.066;2024-01-16T09:33:44;-0.60;99.90
8896;DHT22;4484;48.928;10.066;2024-01-16T09:36:11;-0.40;99.90
8896;DHT22;4484;48.928;10.066;2024-01-16T09:38:38;-0.20;99.90
8896;DHT22;4484;48.928;10.066;2024-01-16T09:41:05;-0.10;99.90
8896;DHT22;4484;48.928;10.066;2024-01-16T09:43:33;0.20;99.90
8896;DHT22;4484;48.928;10.066;2024-01-16T09:46:01;0.40;99.90
8896;DHT22;4484;48.928;10.066;2024-01-16T09:48:31;0.80;99.90
8896;DHT22;4484;48.928;10.066;2024-01-16T09:50:59;1.30;99.90
8896;DHT22;4484;48.928;10.066;2024-01-16T09:53:26;1.80;99.90
8896;DHT22;4484;48.928;10.066;2024-01-16T09:55:54;2.30;99.90
8896;DHT22;4484;48.928;10.066;2024-01-16T09:58:24;2.60;99.90
8896;DHT22;4484;48.928;10.066;2024-01-16T10:00:52;2.60;99.90
8896;DHT22;4484;48.928;10.066;2024-01-16T10:03:20;2.60;99.90
8896;DHT22;4484;48.928;10.066;2024-01-16T10:05:48;2.50;99.90
8896;DHT22;4484;48.928;10.066;2024-01-16T10:08:16;2.50;99.90
8896;DHT22;4484;48.928;10.066;2024-01-16T10:10:42;2.50;99.90
8896;DHT22;4484;48.928;10.066;2024-01-16T10:13:17;2.70;99.90
8896;DHT22;4484;48.928;10.066;2024-01-16T10:15:44;2.70;99.90
8896;DHT22;4484;48.928;10.066;2024-01-16T10:18:22;2.70;99.90
8896;DHT22;4484;48.928;10.066;2024-01-16T10:20:51;2.70;99.90
8896;DHT22;4484;48.928;10.066;2024-01-16T10:23:27;2.70;99.90
8896;DHT22;4484;48.928;10.066;2024-01-16T10:26:11;2.70;99.90
8896;DHT22;4484;48.928;10.066;2024-01-16T10:28:40;2.80;99.90
8896;DHT22;4484;48.928;10.066;2024-01-16T10:31:08;3.00;99.90
8896;DHT22;4484;48.928;10.066;2024-01-16T10:33:36;3.10;99.90
8896;DHT22;4484;48.928;10.066;2024-01-16T10:36:16;3.20;99.90
8896;DHT22;4484;48.928;10.066;2024-01-16T10:38:45;3.20;99.90
8896;DHT22;4484;48.928;10.066;2024-01-16T10:41:14;3.00;99.90
8896;DHT22;4484;48.928;10.066;2024-01-16T10:43:41;2.80;99.90
8896;DHT22;4484;48.928;10.066;2024-01-16T10:46:13;2.60;99.90
8896;DHT22;4484;48.928;10.066;2024-01-16T10:48:45;2.50;99.90
8896;DHT22;4484;48.928;10.066;2024-01-16T10:51:15;2.50;99.90
8896;DHT22;4484;48.928;10.066;2024-01-16T10:53:44;2.40;99.90
8896;DHT22;4484;48.928;10.066;2024-01-16T10:56:11;2.40;99.90
8896;DHT22;4484;48.928;10.066;2024-01-16T10:58:43;2.40;99.90
8896;DHT22;4484;48.928;10.066;2024-01-16T11:01:16;2.30;99.90
8896;DHT22;4484;48.928;10.066;2024-01-16T11:03:47;2.50;99.90
8896;DHT22;4484;48.928;10.066;2024-01-16T11:06:19;2.80;99.90
8896;DHT22;4484;48.928;10.066;2024-01-16T11:08:48;3.10;99.90
8896;DHT22;4484;48.928;10.066;2024-01-16T11:11:16;3.30;99.90
8896;DHT22;4484;48.928;10.066;2024-01-16T11:13:43;3.40;99.90
8896;DHT22;4484;48.928;10.066;2024-01-16T11:16:14;3.50;99.90
8896;DHT22;4484;48.928;10.066;2024-01-16T11:18:41;3.70;99.90
8896;DHT22;4484;48.928;10.066;2024-01-16T11:21:13;3.90;99.90
8896;DHT22;4484;48.928;10.066;2024-01-16T11:23:44;4.20;99.90
8896;DHT22;4484;48.928;10.066;2024-01-16T11:26:29;4.50;99.90
8896;DHT22;4484;48.928;10.066;2024-01-16T11:29:01;4.70;99.90
8896;DHT22;4484;48.928;10.066;2024-01-16T11:31:47;4.90;99.90
8896;DHT22;4484;48.928;10.066;2024-01-16T11:34:14;5.10;99.90
8896;DHT22;4484;48.928;10.066;2024-01-16T11:36:52;5.30;99.90
8896;DHT22;4484;48.928;10.066;2024-01-16T11:39:25;5.40;99.90
8896;DHT22;4484;48.928;10.066;2024-01-16T11:41:54;5.50;99.90
8896;DHT22;4484;48.928;10.066;2024-01-16T11:44:47;5.60;99.90
8896;DHT22;4484;48.928;10.066;2024-01-16T11:47:20;5.70;99.90
8896;DHT22;4484;48.928;10.066;2024-01-16T11:49:52;6.10;99.90
8896;DHT22;4484;48.928;10.066;2024-01-16T11:52:41;6.70;99.90
8896;DHT22;4484;48.928;10.066;2024-01-16T12:00:58;8.60;96.70
8896;DHT22;4484;48.928;10.066;2024-01-16T12:03:26;8.70;94.80
8896;DHT22;4484;48.928;10.066;2024-01-16T12:06:01;8.90;94.80
8896;DHT22;4484;48.928;10.066;2024-01-16T12:08:30;9.10;94.10
8896;DHT22;4484;48.928;10.066;2024-01-16T12:10:57;9.10;93.10
8896;DHT22;4484;48.928;10.066;2024-01-16T12:13:24;9.10;93.30
8896;DHT22;4484;48.928;10.066;2024-01-16T12:16:01;9.10;92.90
8896;DHT22;4484;48.928;10.066;2024-01-16T12:18:28;9.10;93.00
8896;DHT22;4484;48.928;10.066;2024-01-16T12:21:09;8.90;92.20
8896;DHT22;4484;48.928;10.066;2024-01-16T12:23:36;8.80;92.70
8896;DHT22;4484;48.928;10.066;2024-01-16T12:26:06;8.70;93.10
8896;DHT22;4484;48.928;10.066;2024-01-16T12:28:32;8.60;93.00
8896;DHT22;4484;48.928;10.066;2024-01-16T12:31:00;8.60;92.90
8896;DHT22;4484;48.928;10.066;2024-01-16T12:33:28;8.40;92.40
8896;DHT22;4484;48.928;10.066;2024-01-16T12:36:02;8.40;92.90
8896;DHT22;4484;48.928;10.066;2024-01-16T12:38:31;8.20;92.70
8896;DHT22;4484;48.928;10.066;2024-01-16T12:40:58;8.00;92.70
8896;DHT22;4484;48.928;10.066;2024-01-16T12:43:26;7.70;91.90
8896;DHT22;4484;48.928;10.066;2024-01-16T12:45:56;7.50;92.10
8896;DHT22;4484;48.928;10.066;2024-01-16T12:48:25;7.40;93.00
8896;DHT22;4484;48.928;10.066;2024-01-16T12:51:00;7.20;93.30
8896;DHT22;4484;48.928;10.066;2024-01-16T12:53:30;7.00;92.50
8896;DHT22;4484;48.928;10.066;2024-01-16T12:55:59;6.80;92.60
8896;DHT22;4484;48.928;10.066;2024-01-16T12:58:32;6.60;93.70
8896;DHT22;4484;48.928;10.066;2024-01-16T13:01:20;6.50;93.40
8896;DHT22;4484;48.928;10.066;2024-01-16T13:04:04;6.50;93.80
8896;DHT22;4484;48.928;10.066;2024-01-16T13:06:31;6.50;94.20
8896;DHT22;4484;48.928;10.066;2024-01-16T13:09:09;6.50;94.40
8896;DHT22;4484;48.928;10.066;2024-01-16T13:11:46;6.40;94.20
8896;DHT22;4484;48.928;10.066;2024-01-16T13:14:13;6.30;94.40
8896;DHT22;4484;48.928;10.066;2024-01-16T13:16:40;6.10;95.10
8896;DHT22;4484;48.928;10.066;2024-01-16T13:19:07;6.10;95.00
8896;DHT22;4484;48.928;10.066;2024-01-16T13:21:37;6.00;95.00
8896;DHT22;4484;48.928;10.066;2024-01-16T13:24:04;5.90;95.10
8896;DHT22;4484;48.928;10.066;2024-01-16T13:26:31;5.80;94.80
8896;DHT22;4484;48.928;10.066;2024-01-16T13:29:00;5.60;95.00
8896;DHT22;4484;48.928;10.066;2024-01-16T13:31:27;5.40;95.60
8896;DHT22;4484;48.928;10.066;2024-01-16T13:33:54;5.30;96.80
8896;DHT22;4484;48.928;10.066;2024-01-16T13:36:23;5.20;96.90
8896;DHT22;4484;48.928;10.066;2024-01-16T13:39:10;5.00;96.30
8896;DHT22;4484;48.928;10.066;2024-01-16T13:41:40;4.80;96.30
8896;DHT22;4484;48.928;10.066;2024-01-16T13:44:07;4.60;96.30
8896;DHT22;4484;48.928;10.066;2024-01-16T13:46:34;4.50;96.50
8896;DHT22;4484;48.928;10.066;2024-01-16T13:49:22;4.20;96.40
8896;DHT22;4484;48.928;10.066;2024-01-16T13:51:50;3.90;96.20
8896;DHT22;4484;48.928;10.066;2024-01-16T13:54:16;3.50;96.00
8896;DHT22;4484;48.928;10.066;2024-01-16T13:56:43;3.20;97.10
8896;DHT22;4484;48.928;10.066;2024-01-16T13:59:30;3.10;97.70
8896;DHT22;4484;48.928;10.066;2024-01-16T14:01:58;3.00;98.70
8896;DHT22;4484;48.928;10.066;2024-01-16T14:04:25;3.00;99.30
8896;DHT22;4484;48.928;10.066;2024-01-16T14:06:52;2.90;99.10
8896;DHT22;4484;48.928;10.066;2024-01-16T14:09:38;2.80;98.90
8896;DHT22;4484;48.928;10.066;2024-01-16T14:12:05;2.70;99.50
8896;DHT22;4484;48.928;10.066;2024-01-16T14:14:35;2.70;99.90
8896;DHT22;4484;48.928;10.066;2024-01-16T14:17:03;2.70;99.90
8896;DHT22;4484;48.928;10.066;2024-01-16T14:19:30;2.70;99.90
8896;DHT22;4484;48.928;10.066;2024-01-16T14:21:58;2.80;99.90
8896;DHT22;4484;48.928;10.066;2024-01-16T14:24:25;2.80;99.90
8896;DHT22;4484;48.928;10.066;2024-01-16T14:26:52;2.70;99.90
8896;DHT22;4484;48.928;10.066;2024-01-16T14:29:19;2.70;99.90
8896;DHT22;4484;48.928;10.066;2024-01-16T14:31:46;2.70;99.90
8896;DHT22;4484;48.928;10.066;2024-01-16T14:34:16;2.70;99.90
8896;DHT22;4484;48.928;10.066;2024-01-16T14:36:45;2.60;99.90
8896;DHT22;4484;48.928;10.066;2024-01-16T14:39:13;2.60;99.90
8896;DHT22;4484;48.928;10.066;2024-01-16T14:41:44;2.70;99.90
8896;DHT22;4484;48.928;10.066;2024-01-16T14:44:11;2.60;99.90
8896;DHT22;4484;48.928;10.066;2024-01-16T14:46:39;2.50;99.90
8896;DHT22;4484;48.928;10.066;2024-01-16T14:49:06;2.30;99.90
8896;DHT22;4484;48.928;10.066;2024-01-16T14:51:34;2.30;99.90
8896;DHT22;4484;48.928;10.066;2024-01-16T14:54:02;2.20;99.90
8896;DHT22;4484;48.928;10.066;2024-01-16T14:56:29;2.10;99.90
8896;DHT22;4484;48.928;10.066;2024-01-16T14:58:57;2.20;99.90
8896;DHT22;4484;48.928;10.066;2024-01-16T15:01:24;2.40;99.90
8896;DHT22;4484;48.928;10.066;2024-01-16T15:03:51;2.60;99.90
8896;DHT22;4484;48.928;10.066;2024-01-16T15:06:18;2.70;99.90
8896;DHT22;4484;48.928;10.066;2024-01-16T15:08:45;2.90;99.90
8896;DHT22;4484;48.928;10.066;2024-01-16T15:11:15;2.90;99.90
8896;DHT22;4484;48.928;10.066;2024-01-16T15:13:43;2.80;99.80
8896;DHT22;4484;48.928;10.066;2024-01-16T15:16:11;2.60;99.80
8896;DHT22;4484;48.928;10.066;2024-01-16T15:18:38;2.30;99.90
8896;DHT22;4484;48.928;10.066;2024-01-16T15:21:05;2.20;99.90
8896;DHT22;4484;48.928;10.066;2024-01-16T15:23:32;2.00;99.90
8896;DHT22;4484;48.928;10.066;2024-01-16T15:25:59;1.80;99.90
8896;DHT22;4484;48.928;10.066;2024-01-16T15:28:32;1.60;99.90
8896;DHT22;4484;48.928;10.066;2024-01-16T15:31:00;1.30;99.90
8896;DHT22;4484;48.928;10.066;2024-01-16T15:33:34;1.20;99.90
8896;DHT22;4484;48.928;10.066;2024-01-16T15:36:03;1.00;99.90
8896;DHT22;4484;48.928;10.066;2024-01-16T15:38:30;0.80;99.90
8896;DHT22;4484;48.928;10.066;2024-01-16T15:40:58;0.70;99.90
8896;DHT22;4484;48.928;10.066;2024-01-16T15:43:25;0.60;99.90
8896;DHT22;4484;48.928;10.066;2024-01-16T15:45:51;0.40;99.90
8896;DHT22;4484;48.928;10.066;2024-01-16T15:48:18;0.30;99.90
8896;DHT22;4484;48.928;10.066;2024-01-16T15:50:46;0.20;99.90
8896;DHT22;4484;48.928;10.066;2024-01-16T15:53:13;0.10;99.90
8896;DHT22;4484;48.928;10.066;2024-01-16T15:55:43;0.00;99.90
8896;DHT22;4484;48.928;10.066;2024-01-16T15:58:10;-0.10;99.90
8896;DHT22;4484;48.928;10.066;2024-01-16T16:00:37;-0.20;99.90
8896;DHT22;4484;48.928;10.066;2024-01-16T16:03:05;-0.30;99.90
8896;DHT22;4484;48.928;10.066;2024-01-16T16:05:33;-0.40;99.90